sensor_id;sensor_type;location;lat;lon;timestamp;temperature;humidity
19292;DHT22;9779;51.756;7.450;2022-10-16T00:01:27;13.20;99.90
19292;DHT22;9779;51.756;7.450;2022-10-16T00:03:54;13.20;99.90
19292;DHT22;9779;51.756;7.450;2022-10-16T00:06:21;13.20;99.90
19292;DHT22;9779;51.756;7.450;2022-10-16T00:08:47;13.10;99.90
19292;DHT22;9779;51.756;7.450;2022-10-16T00:11:22;13.10;99.90
19292;DHT22;9779;51.756;7.450;2022-10-16T00:13:50;13.10;99.90
19292;DHT22;9779;51.756;7.450;2022-10-16T00:16:16;13.10;99.90
19292;DHT22;9779;51.756;7.450;2022-10-16T00:18:42;13.10;99.90
19292;DHT22;9779;51.756;7.450;2022-10-16T00:21:10;13.00;99.90
19292;DHT22;9779;51.756;7.450;2022-10-16T00:23:36;13.00;99.90
19292;DHT22;9779;51.756;7.450;2022-10-16T00:26:05;13.00;99.90
19292;DHT22;9779;51.756;7.450;2022-10-16T00:28:31;13.00;99.90
19292;DHT22;9779;51.756;7.450;2022-10-16T00:30:57;13.00;99.90
19292;DHT22;9779;51.756;7.450;2022-10-16T00:33:23;13.00;99.90
19292;DHT22;9779;51.756;7.450;2022-10-16T00:35:49;13.00;99.90
19292;DHT22;9779;51.756;7.450;2022-10-16T00:38:15;13.00;99.90
19292;DHT22;9779;51.756;7.450;2022-10-16T00:40:41;12.90;99.90
19292;DHT22;9779;51.756;7.450;2022-10-16T00:43:33;12.90;99.90
19292;DHT22;9779;51.756;7.450;2022-10-16T00:46:00;12.90;99.90
19292;DHT22;9779;51.756;7.450;2022-10-16T00:48:26;12.90;99.90
19292;DHT22;9779;51.756;7.450;2022-10-16T00:50:53;12.90;99.90
19292;DHT22;9779;51.756;7.450;2022-10-16T00:53:19;12.90;99.90
19292;DHT22;9779;51.756;7.450;2022-10-16T00:55:44;12.90;99.90
19292;DHT22;9779;51.756;7.450;2022-10-16T00:58:11;12.90;99.90
19292;DHT22;9779;51.756;7.450;2022-10-16T01:00:37;12.90;99.90
19292;DHT22;9779;51.756;7.450;2022-10-16T01:03:03;12.90;99.90
19292;DHT22;9779;51.756;7.450;2022-10-16T01:05:49;12.90;99.90
19292;DHT22;9779;51.756;7.450;2022-10-16T01:08:23;12.80;99.90
19292;DHT22;9779;51.756;7.450;2022-10-16T01:10:59;12.80;99.90
19292;DHT22;9779;51.756;7.450;2022-10-16T01:13:40;12.90;99.90
19292;DHT22;9779;51.756;7.450;2022-10-16T01:18:46;12.80;99.90
19292;DHT22;9779;51.756;7.450;2022-10-16T01:28:57;12.80;99.90
19292;DHT22;9779;51.756;7.450;2022-10-16T01:31:30;12.80;99.90
19292;DHT22;9779;51.756;7.450;2022-10-16T01:36:55;12.70;99.90
19292;DHT22;9779;51.756;7.450;2022-10-16T01:39:27;12.70;99.90
19292;DHT22;9779;51.756;7.450;2022-10-16T01:42:24;12.70;99.90
19292;DHT22;9779;51.756;7.450;2022-10-16T01:44:53;12.70;99.90
19292;DHT22;9779;51.756;7.450;2022-10-16T01:47:23;12.70;99.90
19292;DHT22;9779;51.756;7.450;2022-10-16T01:49:49;12.70;99.90
19292;DHT22;9779;51.756;7.450;2022-10-16T01:52:20;12.70;99.90
19292;DHT22;9779;51.756;7.450;2022-10-16T01:54:49;12.60;99.90
19292;DHT22;9779;51.756;7.450;2022-10-16T01:57:17;12.60;99.90
19292;DHT22;9779;51.756;7.450;2022-10-16T01:59:46;12.60;99.90
19292;DHT22;9779;51.756;7.450;2022-10-16T02:02:14;12.60;99.90
19292;DHT22;9779;51.756;7.450;2022-10-16T02:04:45;12.60;99.90
19292;DHT22;9779;51.756;7.450;2022-10-16T02:07:11;12.60;99.90
19292;DHT22;9779;51.756;7.450;2022-10-16T02:09:38;12.60;99.90
19292;DHT22;9779;51.756;7.450;2022-10-16T02:12:30;12.60;99.90
19292;DHT22;9779;51.756;7.450;2022-10-16T02:14:54;12.60;99.90
19292;DHT22;9779;51.756;7.450;2022-10-16T02:17:20;12.60;99.90
19292;DHT22;9779;51.756;7.450;2022-10-16T02:19:48;12.60;99.90
19292;DHT22;9779;51.756;7.450;2022-10-16T02:22:28;12.60;99.90
19292;DHT22;9779;51.756;7.450;2022-10-16T02:25:15;12.60;99.90
19292;DHT22;9779;51.756;7.450;2022-10-16T02:28:02;12.50;99.90
19292;DHT22;9779;51.756;7.450;2022-10-16T02:30:40;12.50;99.90
19292;DHT22;9779;51.756;7.450;2022-10-16T02:33:09;12.50;99.90
19292;DHT22;9779;51.756;7.450;2022-10-16T02:35:36;12.50;99.90
19292;DHT22;9779;51.756;7.450;2022-10-16T02:38:03;12.50;99.90
19292;DHT22;9779;51.756;7.450;2022-10-16T02:40:29;12.40;99.90
19292;DHT22;9779;51.756;7.450;2022-10-16T02:42:55;12.50;99.90
19292;DHT22;9779;51.756;7.450;2022-10-16T02:45:22;12.40;99.90
19292;DHT22;9779;51.756;7.450;2022-10-16T02:47:47;12.40;99.90
19292;DHT22;9779;51.756;7.450;2022-10-16T02:50:13;12.40;99.90
19292;DHT22;9779;51.756;7.450;2022-10-16T02:52:38;12.40;99.90
19292;DHT22;9779;51.756;7.450;2022-10-16T02:55:04;12.40;99.90
19292;DHT22;9779;51.756;7.450;2022-10-16T02:57:30;12.40;99.90
19292;DHT22;9779;51.756;7.450;2022-10-16T02:59:57;12.40;99.90
19292;DHT22;9779;51.756;7.450;2022-10-16T03:02:22;12.40;99.90
19292;DHT22;9779;51.756;7.450;2022-10-16T03:04:48;12.40;99.90
19292;DHT22;9779;51.756;7.450;2022-10-16T03:07:13;12.40;99.90
19292;DHT22;9779;51.756;7.450;2022-10-16T03:09:39;12.40;99.90
19292;DHT22;9779;51.756;7.450;2022-10-16T03:12:05;12.40;99.90
19292;DHT22;9779;51.756;7.450;2022-10-16T03:14:30;12.40;99.90
19292;DHT22;9779;51.756;7.450;2022-10-16T03:16:56;12.40;99.90
19292;DHT22;9779;51.756;7.450;2022-10-16T03:19:21;12.40;99.90
19292;DHT22;9779;51.756;7.450;2022-10-16T03:21:47;12.40;99.90
19292;DHT22;9779;51.756;7.450;2022-10-16T03:24:12;12.40;99.90
19292;DHT22;9779;51.756;7.450;2022-10-16T03:26:38;12.40;99.90
19292;DHT22;9779;51.756;7.450;2022-10-16T03:29:04;12.40;99.90
19292;DHT22;9779;51.756;7.450;2022-10-16T03:31:30;12.40;99.90
19292;DHT22;9779;51.756;7.450;2022-10-16T03:33:56;12.40;99.90
19292;DHT22;9779;51.756;7.450;2022-10-16T03:36:22;12.40;99.90
19292;DHT22;9779;51.756;7.450;2022-10-16T03:38:47;12.40;99.90
19292;DHT22;9779;51.756;7.450;2022-10-16T03:41:13;12.40;99.90
19292;DHT22;9779;51.756;7.450;2022-10-16T03:43:38;12.40;99.90
19292;DHT22;9779;51.756;7.450;2022-10-16T03:46:04;12.40;99.90
19292;DHT22;9779;51.756;7.450;2022-10-16T03:48:30;12.40;99.90
19292;DHT22;9779;51.756;7.450;2022-10-16T03:50:55;12.40;99.90
19292;DHT22;9779;51.756;7.450;2022-10-16T03:53:21;12.40;99.90
19292;DHT22;9779;51.756;7.450;2022-10-16T03:55:47;12.40;99.90
19292;DHT22;9779;51.756;7.450;2022-10-16T03:58:12;12.40;99.90
19292;DHT22;9779;51.756;7.450;2022-10-16T04:00:42;12.30;99.90
19292;DHT22;9779;51.756;7.450;2022-10-16T04:03:07;12.40;99.90
19292;DHT22;9779;51.756;7.450;2022-10-16T04:05:33;12.30;99.90
19292;DHT22;9779;51.756;7.450;2022-10-16T04:07:58;12.30;99.90
19292;DHT22;9779;51.756;7.450;2022-10-16T04:10:24;12.30;99.90
19292;DHT22;9779;51.756;7.450;2022-10-16T04:12:50;12.30;99.90
19292;DHT22;9779;51.756;7.450;2022-10-16T04:15:15;12.30;99.90
19292;DHT22;9779;51.756;7.450;2022-10-16T04:17:41;12.30;99.90
19292;DHT22;9779;51.756;7.450;2022-10-16T04:20:06;12.30;99.90
19292;DHT22;9779;51.756;7.450;2022-10-16T04:22:32;12.30;99.90
19292;DHT22;9779;51.756;7.450;2022-10-16T04:24:58;12.30;99.90
19292;DHT22;9779;51.756;7.450;2022-10-16T04:27:23;12.30;99.90
19292;DHT22;9779;51.756;7.450;2022-10-16T04:29:49;12.30;99.90
19292;DHT22;9779;51.756;7.450;2022-10-16T04:32:14;12.30;99.90
19292;DHT22;9779;51.756;7.450;2022-10-16T04:34:40;12.30;99.90
19292;DHT22;9779;51.756;7.450;2022-10-16T04:37:06;12.30;99.90
19292;DHT22;9779;51.756;7.450;2022-10-16T04:39:31;12.30;99.90
19292;DHT22;9779;51.756;7.450;2022-10-16T04:41:57;12.30;99.90
19292;DHT22;9779;51.756;7.450;2022-10-16T04:44:22;12.30;99.90
19292;DHT22;9779;51.756;7.450;2022-10-16T04:46:51;12.30;99.90
19292;DHT22;9779;51.756;7.450;2022-10-16T04:49:16;12.30;99.90
19292;DHT22;9779;51.756;7.450;2022-10-16T04:51:42;12.30;99.90
19292;DHT22;9779;51.756;7.450;2022-10-16T04:54:09;12.30;99.90
19292;DHT22;9779;51.756;7.450;2022-10-16T04:56:34;12.20;99.90
19292;DHT22;9779;51.756;7.450;2022-10-16T04:59:05;12.30;99.90
19292;DHT22;9779;51.756;7.450;2022-10-16T05:01:31;12.20;99.90
19292;DHT22;9779;51.756;7.450;2022-10-16T05:03:56;12.20;99.90
19292;DHT22;9779;51.756;7.450;2022-10-16T05:06:22;12.20;99.90
19292;DHT22;9779;51.756;7.450;2022-10-16T05:08:47;12.20;99.90
19292;DHT22;9779;51.756;7.450;2022-10-16T05:11:13;12.20;99.90
19292;DHT22;9779;51.756;7.450;2022-10-16T05:13:38;12.20;99.90
19292;DHT22;9779;51.756;7.450;2022-10-16T05:16:04;12.20;99.90
19292;DHT22;9779;51.756;7.450;2022-10-16T05:18:30;12.20;99.90
19292;DHT22;9779;51.756;7.450;2022-10-16T05:20:55;12.20;99.90
19292;DHT22;9779;51.756;7.450;2022-10-16T05:23:21;12.20;99.90
19292;DHT22;9779;51.756;7.450;2022-10-16T05:25:56;12.20;99.90
19292;DHT22;9779;51.756;7.450;2022-10-16T05:28:27;12.20;99.90
19292;DHT22;9779;51.756;7.450;2022-10-16T05:30:53;12.20;99.90
19292;DHT22;9779;51.756;7.450;2022-10-16T05:33:23;12.20;99.90
19292;DHT22;9779;51.756;7.450;2022-10-16T05:35:48;12.20;99.90
19292;DHT22;9779;51.756;7.450;2022-10-16T05:38:15;12.20;99.90
19292;DHT22;9779;51.756;7.450;2022-10-16T05:40:41;12.20;99.90
19292;DHT22;9779;51.756;7.450;2022-10-16T05:43:07;12.20;99.90
19292;DHT22;9779;51.756;7.450;2022-10-16T05:45:32;12.20;99.90
19292;DHT22;9779;51.756;7.450;2022-10-16T05:47:59;12.10;99.90
19292;DHT22;9779;51.756;7.450;2022-10-16T05:50:25;12.20;99.90
19292;DHT22;9779;51.756;7.450;2022-10-16T05:52:50;12.10;99.90
19292;DHT22;9779;51.756;7.450;2022-10-16T05:55:16;12.10;99.90
19292;DHT22;9779;51.756;7.450;2022-10-16T05:57:42;12.20;99.90
19292;DHT22;9779;51.756;7.450;2022-10-16T06:00:08;12.10;99.90
19292;DHT22;9779;51.756;7.450;2022-10-16T06:02:33;12.20;99.90
19292;DHT22;9779;51.756;7.450;2022-10-16T06:04:59;12.20;99.90
19292;DHT22;9779;51.756;7.450;2022-10-16T06:07:24;12.20;99.90
19292;DHT22;9779;51.756;7.450;2022-10-16T06:09:51;12.20;99.90
19292;DHT22;9779;51.756;7.450;2022-10-16T06:12:17;12.20;99.90
19292;DHT22;9779;51.756;7.450;2022-10-16T06:14:44;12.20;99.90
19292;DHT22;9779;51.756;7.450;2022-10-16T06:17:10;12.20;99.90
19292;DHT22;9779;51.756;7.450;2022-10-16T06:19:35;12.20;99.90
19292;DHT22;9779;51.756;7.450;2022-10-16T06:22:01;12.20;99.90
19292;DHT22;9779;51.756;7.450;2022-10-16T06:24:27;12.20;99.90
19292;DHT22;9779;51.756;7.450;2022-10-16T06:26:53;12.20;99.90
19292;DHT22;9779;51.756;7.450;2022-10-16T06:29:19;12.20;99.90
19292;DHT22;9779;51.756;7.450;2022-10-16T06:31:44;12.20;99.90
19292;DHT22;9779;51.756;7.450;2022-10-16T06:34:10;12.20;99.90
19292;DHT22;9779;51.756;7.450;2022-10-16T06:36:37;12.20;99.90
19292;DHT22;9779;51.756;7.450;2022-10-16T06:39:04;12.30;99.90
19292;DHT22;9779;51.756;7.450;2022-10-16T06:41:30;12.30;99.90
19292;DHT22;9779;51.756;7.450;2022-10-16T06:43:56;12.30;99.90
19292;DHT22;9779;51.756;7.450;2022-10-16T06:46:23;12.30;99.90
19292;DHT22;9779;51.756;7.450;2022-10-16T06:48:49;12.30;99.90
19292;DHT22;9779;51.756;7.450;2022-10-16T06:51:17;12.30;99.90
19292;DHT22;9779;51.756;7.450;2022-10-16T06:53:48;12.30;99.90
19292;DHT22;9779;51.756;7.450;2022-10-16T06:56:25;12.40;99.90
19292;DHT22;9779;51.756;7.450;2022-10-16T06:58:52;12.40;99.90
19292;DHT22;9779;51.756;7.450;2022-10-16T07:01:20;12.40;99.90
19292;DHT22;9779;51.756;7.450;2022-10-16T07:03:46;12.40;99.90
19292;DHT22;9779;51.756;7.450;2022-10-16T07:06:17;12.40;99.90
19292;DHT22;9779;51.756;7.450;2022-10-16T07:08:45;12.40;99.90
19292;DHT22;9779;51.756;7.450;2022-10-16T07:11:12;12.40;99.90
19292;DHT22;9779;51.756;7.450;2022-10-16T07:13:41;12.40;99.90
19292;DHT22;9779;51.756;7.450;2022-10-16T07:16:18;12.50;99.90
19292;DHT22;9779;51.756;7.450;2022-10-16T07:18:44;12.40;99.90
19292;DHT22;9779;51.756;7.450;2022-10-16T07:21:17;12.40;99.90
19292;DHT22;9779;51.756;7.450;2022-10-16T07:23:43;12.50;99.90
19292;DHT22;9779;51.756;7.450;2022-10-16T07:26:09;12.50;99.90
19292;DHT22;9779;51.756;7.450;2022-10-16T07:28:36;12.40;99.90
19292;DHT22;9779;51.756;7.450;2022-10-16T07:31:07;12.40;99.90
19292;DHT22;9779;51.756;7.450;2022-10-16T07:33:33;12.40;99.90
19292;DHT22;9779;51.756;7.450;2022-10-16T07:35:59;12.50;99.90
19292;DHT22;9779;51.756;7.450;2022-10-16T07:38:25;12.50;99.90
19292;DHT22;9779;51.756;7.450;2022-10-16T07:41:02;12.40;99.90
19292;DHT22;9779;51.756;7.450;2022-10-16T07:43:27;12.50;99.90
19292;DHT22;9779;51.756;7.450;2022-10-16T07:45:53;12.50;99.90
19292;DHT22;9779;51.756;7.450;2022-10-16T07:48:20;12.60;99.90
19292;DHT22;9779;51.756;7.450;2022-10-16T07:50:46;12.60;99.90
19292;DHT22;9779;51.756;7.450;2022-10-16T07:53:12;12.70;99.90
19292;DHT22;9779;51.756;7.450;2022-10-16T07:55:38;12.70;99.90
19292;DHT22;9779;51.756;7.450;2022-10-16T07:58:04;12.80;99.90
19292;DHT22;9779;51.756;7.450;2022-10-16T08:00:30;12.90;99.90
19292;DHT22;9779;51.756;7.450;2022-10-16T08:02:57;12.90;99.90
19292;DHT22;9779;51.756;7.450;2022-10-16T08:05:26;13.00;99.90
19292;DHT22;9779;51.756;7.450;2022-10-16T08:07:52;13.10;99.90
19292;DHT22;9779;51.756;7.450;2022-10-16T08:10:19;13.20;99.90
19292;DHT22;9779;51.756;7.450;2022-10-16T08:12:45;13.20;99.90
19292;DHT22;9779;51.756;7.450;2022-10-16T08:15:10;13.30;99.90
19292;DHT22;9779;51.756;7.450;2022-10-16T08:17:36;13.30;99.90
19292;DHT22;9779;51.756;7.450;2022-10-16T08:20:02;13.40;99.90
19292;DHT22;9779;51.756;7.450;2022-10-16T08:22:28;13.40;99.90
19292;DHT22;9779;51.756;7.450;2022-10-16T08:24:53;13.60;99.90
19292;DHT22;9779;51.756;7.450;2022-10-16T08:27:19;13.60;99.90
19292;DHT22;9779;51.756;7.450;2022-10-16T08:29:44;13.60;99.90
19292;DHT22;9779;51.756;7.450;2022-10-16T08:32:10;13.80;99.90
19292;DHT22;9779;51.756;7.450;2022-10-16T08:34:35;13.80;99.90
19292;DHT22;9779;51.756;7.450;2022-10-16T08:37:01;13.90;99.90
19292;DHT22;9779;51.756;7.450;2022-10-16T08:39:27;14.00;99.90
19292;DHT22;9779;51.756;7.450;2022-10-16T08:47:25;14.10;99.90
19292;DHT22;9779;51.756;7.450;2022-10-16T08:50:00;14.20;99.90
19292;DHT22;9779;51.756;7.450;2022-10-16T08:52:34;14.40;99.90
19292;DHT22;9779;51.756;7.450;2022-10-16T08:55:01;14.50;99.90
19292;DHT22;9779;51.756;7.450;2022-10-16T08:57:27;14.50;99.90
19292;DHT22;9779;51.756;7.450;2022-10-16T08:59:54;14.50;99.90
19292;DHT22;9779;51.756;7.450;2022-10-16T09:02:40;14.50;99.90
19292;DHT22;9779;51.756;7.450;2022-10-16T09:08:12;14.60;99.90
19292;DHT22;9779;51.756;7.450;2022-10-16T09:13:50;14.80;99.90
19292;DHT22;9779;51.756;7.450;2022-10-16T09:16:27;14.80;99.90
19292;DHT22;9779;51.756;7.450;2022-10-16T09:19:09;14.90;99.90
19292;DHT22;9779;51.756;7.450;2022-10-16T09:21:41;15.00;99.90
19292;DHT22;9779;51.756;7.450;2022-10-16T09:24:13;15.00;99.90
19292;DHT22;9779;51.756;7.450;2022-10-16T09:26:39;15.10;99.90
19292;DHT22;9779;51.756;7.450;2022-10-16T09:29:05;15.10;99.90
19292;DHT22;9779;51.756;7.450;2022-10-16T09:31:30;15.20;99.90
19292;DHT22;9779;51.756;7.450;2022-10-16T09:33:59;15.20;99.90
19292;DHT22;9779;51.756;7.450;2022-10-16T09:36:28;15.20;99.90
19292;DHT22;9779;51.756;7.450;2022-10-16T09:39:06;15.20;99.90
19292;DHT22;9779;51.756;7.450;2022-10-16T09:41:35;15.30;99.90
19292;DHT22;9779;51.756;7.450;2022-10-16T09:44:02;15.30;99.90
19292;DHT22;9779;51.756;7.450;2022-10-16T09:46:36;15.40;99.90
19292;DHT22;9779;51.756;7.450;2022-10-16T09:49:21;15.50;99.90
19292;DHT22;9779;51.756;7.450;2022-10-16T09:51:47;15.50;99.90
19292;DHT22;9779;51.756;7.450;2022-10-16T09:54:15;15.60;99.90
19292;DHT22;9779;51.756;7.450;2022-10-16T09:56:42;15.60;99.90
19292;DHT22;9779;51.756;7.450;2022-10-16T10:01:41;15.70;99.90
19292;DHT22;9779;51.756;7.450;2022-10-16T10:04:08;15.80;99.90
19292;DHT22;9779;51.756;7.450;2022-10-16T10:06:43;15.80;99.90
19292;DHT22;9779;51.756;7.450;2022-10-16T10:09:37;15.90;99.90
19292;DHT22;9779;51.756;7.450;2022-10-16T10:12:04;15.90;99.90
19292;DHT22;9779;51.756;7.450;2022-10-16T10:14:38;16.00;99.90
19292;DHT22;9779;51.756;7.450;2022-10-16T10:30:54;16.70;99.90
19292;DHT22;9779;51.756;7.450;2022-10-16T10:36:38;16.70;99.90
19292;DHT22;9779;51.756;7.450;2022-10-16T10:39:24;16.60;99.90
19292;DHT22;9779;51.756;7.450;2022-10-16T10:47:48;16.30;99.90
19292;DHT22;9779;51.756;7.450;2022-10-16T11:01:14;16.10;99.90
19292;DHT22;9779;51.756;7.450;2022-10-16T11:06:28;16.10;99.90
19292;DHT22;9779;51.756;7.450;2022-10-16T11:09:15;16.00;99.90
19292;DHT22;9779;51.756;7.450;2022-10-16T11:11:44;16.00;99.90
19292;DHT22;9779;51.756;7.450;2022-10-16T11:14:23;16.00;99.90
19292;DHT22;9779;51.756;7.450;2022-10-16T11:17:22;16.00;99.90
19292;DHT22;9779;51.756;7.450;2022-10-16T11:23:24;16.20;99.90
19292;DHT22;9779;51.756;7.450;2022-10-16T11:25:50;16.30;99.90
19292;DHT22;9779;51.756;7.450;2022-10-16T11:28:21;16.40;99.90
19292;DHT22;9779;51.756;7.450;2022-10-16T11:44:55;17.00;99.90
19292;DHT22;9779;51.756;7.450;2022-10-16T11:47:47;17.00;99.90
19292;DHT22;9779;51.756;7.450;2022-10-16T11:50:27;17.10;99.90
19292;DHT22;9779;51.756;7.450;2022-10-16T11:55:36;17.30;99.90
19292;DHT22;9779;51.756;7.450;2022-10-16T11:58:07;17.40;99.90
19292;DHT22;9779;51.756;7.450;2022-10-16T12:01:25;17.60;99.90
19292;DHT22;9779;51.756;7.450;2022-10-16T12:06:34;17.80;99.90
19292;DHT22;9779;51.756;7.450;2022-10-16T12:09:00;17.90;99.90
19292;DHT22;9779;51.756;7.450;2022-10-16T12:14:03;18.10;99.90
19292;DHT22;9779;51.756;7.450;2022-10-16T12:16:29;18.10;99.90
19292;DHT22;9779;51.756;7.450;2022-10-16T12:19:15;18.30;99.90
19292;DHT22;9779;51.756;7.450;2022-10-16T12:21:42;18.50;99.90
19292;DHT22;9779;51.756;7.450;2022-10-16T12:24:41;18.50;99.90
19292;DHT22;9779;51.756;7.450;2022-10-16T12:27:30;18.70;99.90
19292;DHT22;9779;51.756;7.450;2022-10-16T12:29:59;18.80;99.90
19292;DHT22;9779;51.756;7.450;2022-10-16T12:32:35;18.90;99.90
19292;DHT22;9779;51.756;7.450;2022-10-16T12:35:02;18.90;99.90
19292;DHT22;9779;51.756;7.450;2022-10-16T12:37:34;19.00;99.90
19292;DHT22;9779;51.756;7.450;2022-10-16T12:40:13;19.10;99.90
19292;DHT22;9779;51.756;7.450;2022-10-16T12:42:40;19.20;99.90
19292;DHT22;9779;51.756;7.450;2022-10-16T12:45:32;19.30;99.90
19292;DHT22;9779;51.756;7.450;2022-10-16T12:48:00;19.50;99.90
19292;DHT22;9779;51.756;7.450;2022-10-16T12:52:56;19.60;99.90
19292;DHT22;9779;51.756;7.450;2022-10-16T12:55:23;19.60;99.90
19292;DHT22;9779;51.756;7.450;2022-10-16T13:06:36;19.70;99.90
19292;DHT22;9779;51.756;7.450;2022-10-16T13:14:50;20.10;99.90
19292;DHT22;9779;51.756;7.450;2022-10-16T13:20:21;20.30;99.90
19292;DHT22;9779;51.756;7.450;2022-10-16T13:23:00;20.50;99.90
19292;DHT22;9779;51.756;7.450;2022-10-16T13:33:37;21.00;99.90
19292;DHT22;9779;51.756;7.450;2022-10-16T13:36:05;21.00;99.90
19292;DHT22;9779;51.756;7.450;2022-10-16T13:38:34;21.00;99.90
19292;DHT22;9779;51.756;7.450;2022-10-16T13:41:03;21.10;99.90
19292;DHT22;9779;51.756;7.450;2022-10-16T13:46:06;21.30;99.90
19292;DHT22;9779;51.756;7.450;2022-10-16T13:48:33;21.50;99.90
19292;DHT22;9779;51.756;7.450;2022-10-16T13:51:16;21.70;99.90
19292;DHT22;9779;51.756;7.450;2022-10-16T13:53:43;21.70;99.90
19292;DHT22;9779;51.756;7.450;2022-10-16T13:56:15;21.80;99.90
19292;DHT22;9779;51.756;7.450;2022-10-16T13:58:41;21.80;99.90
19292;DHT22;9779;51.756;7.450;2022-10-16T14:01:24;21.70;99.90
19292;DHT22;9779;51.756;7.450;2022-10-16T14:03:51;21.60;99.90
19292;DHT22;9779;51.756;7.450;2022-10-16T14:06:21;21.60;99.90
19292;DHT22;9779;51.756;7.450;2022-10-16T14:11:49;21.10;99.90
19292;DHT22;9779;51.756;7.450;2022-10-16T14:14:17;20.90;99.90
19292;DHT22;9779;51.756;7.450;2022-10-16T14:16:43;20.80;99.90
19292;DHT22;9779;51.756;7.450;2022-10-16T14:19:20;20.80;99.90
19292;DHT22;9779;51.756;7.450;2022-10-16T14:21:48;20.70;99.90
19292;DHT22;9779;51.756;7.450;2022-10-16T14:24:25;20.90;99.90
19292;DHT22;9779;51.756;7.450;2022-10-16T14:26:51;21.00;99.90
19292;DHT22;9779;51.756;7.450;2022-10-16T14:29:20;21.00;99.90
19292;DHT22;9779;51.756;7.450;2022-10-16T14:31:57;21.20;99.90
19292;DHT22;9779;51.756;7.450;2022-10-16T14:34:52;21.20;99.90
19292;DHT22;9779;51.756;7.450;2022-10-16T14:37:27;21.20;99.90
19292;DHT22;9779;51.756;7.450;2022-10-16T14:39:54;21.10;99.90
19292;DHT22;9779;51.756;7.450;2022-10-16T14:42:21;21.10;99.90
19292;DHT22;9779;51.756;7.450;2022-10-16T14:44:50;21.10;99.90
19292;DHT22;9779;51.756;7.450;2022-10-16T14:47:21;21.00;99.90
19292;DHT22;9779;51.756;7.450;2022-10-16T14:49:50;20.90;99.90
19292;DHT22;9779;51.756;7.450;2022-10-16T14:52:16;20.70;99.90
19292;DHT22;9779;51.756;7.450;2022-10-16T14:54:42;20.60;99.90
19292;DHT22;9779;51.756;7.450;2022-10-16T14:57:18;20.50;99.90
19292;DHT22;9779;51.756;7.450;2022-10-16T14:59:45;20.50;99.90
19292;DHT22;9779;51.756;7.450;2022-10-16T15:04:46;20.40;99.90
19292;DHT22;9779;51.756;7.450;2022-10-16T15:07:11;20.30;99.90
19292;DHT22;9779;51.756;7.450;2022-10-16T15:09:37;20.30;99.90
19292;DHT22;9779;51.756;7.450;2022-10-16T15:12:02;20.20;99.90
19292;DHT22;9779;51.756;7.450;2022-10-16T15:14:28;20.20;99.90
19292;DHT22;9779;51.756;7.450;2022-10-16T15:16:53;20.20;99.90
19292;DHT22;9779;51.756;7.450;2022-10-16T15:19:19;20.10;99.90
19292;DHT22;9779;51.756;7.450;2022-10-16T15:21:45;20.10;99.90
19292;DHT22;9779;51.756;7.450;2022-10-16T15:24:14;20.00;99.90
19292;DHT22;9779;51.756;7.450;2022-10-16T15:26:39;19.90;99.90
19292;DHT22;9779;51.756;7.450;2022-10-16T15:29:05;19.90;99.90
19292;DHT22;9779;51.756;7.450;2022-10-16T15:31:31;19.80;99.90
19292;DHT22;9779;51.756;7.450;2022-10-16T15:33:57;19.80;99.90
19292;DHT22;9779;51.756;7.450;2022-10-16T15:36:31;19.70;99.90
19292;DHT22;9779;51.756;7.450;2022-10-16T15:38:59;19.70;99.90
19292;DHT22;9779;51.756;7.450;2022-10-16T15:41:25;19.60;99.90
19292;DHT22;9779;51.756;7.450;2022-10-16T15:43:51;19.60;99.90
19292;DHT22;9779;51.756;7.450;2022-10-16T15:46:37;19.50;99.90
19292;DHT22;9779;51.756;7.450;2022-10-16T15:49:03;19.50;99.90
19292;DHT22;9779;51.756;7.450;2022-10-16T15:51:29;19.50;99.90
19292;DHT22;9779;51.756;7.450;2022-10-16T15:53:58;19.40;99.90
19292;DHT22;9779;51.756;7.450;2022-10-16T15:56:25;19.40;99.90
19292;DHT22;9779;51.756;7.450;2022-10-16T15:58:52;19.30;99.90
19292;DHT22;9779;51.756;7.450;2022-10-16T16:01:18;19.30;99.90
19292;DHT22;9779;51.756;7.450;2022-10-16T16:03:44;19.20;99.90
19292;DHT22;9779;51.756;7.450;2022-10-16T16:06:11;19.10;99.90
19292;DHT22;9779;51.756;7.450;2022-10-16T16:08:38;19.20;99.90
19292;DHT22;9779;51.756;7.450;2022-10-16T16:11:09;19.10;99.90
19292;DHT22;9779;51.756;7.450;2022-10-16T16:13:35;19.10;99.90
19292;DHT22;9779;51.756;7.450;2022-10-16T16:16:05;19.00;99.90
19292;DHT22;9779;51.756;7.450;2022-10-16T16:18:31;18.90;99.90
19292;DHT22;9779;51.756;7.450;2022-10-16T16:20:57;18.90;99.90
19292;DHT22;9779;51.756;7.450;2022-10-16T16:23:28;18.80;99.90
19292;DHT22;9779;51.756;7.450;2022-10-16T16:26:14;18.80;99.90
19292;DHT22;9779;51.756;7.450;2022-10-16T16:28:41;18.70;99.90
19292;DHT22;9779;51.756;7.450;2022-10-16T16:31:07;18.60;99.90
19292;DHT22;9779;51.756;7.450;2022-10-16T16:33:33;18.60;99.90
19292;DHT22;9779;51.756;7.450;2022-10-16T16:36:03;18.50;99.90
19292;DHT22;9779;51.756;7.450;2022-10-16T16:38:29;18.40;99.90
19292;DHT22;9779;51.756;7.450;2022-10-16T16:40:55;18.40;99.90
19292;DHT22;9779;51.756;7.450;2022-10-16T16:43:26;18.30;99.90
19292;DHT22;9779;51.756;7.450;2022-10-16T16:45:52;18.30;99.90
19292;DHT22;9779;51.756;7.450;2022-10-16T16:48:18;18.20;99.90
19292;DHT22;9779;51.756;7.450;2022-10-16T16:50:44;18.10;99.90
19292;DHT22;9779;51.756;7.450;2022-10-16T16:53:09;18.10;99.90
19292;DHT22;9779;51.756;7.450;2022-10-16T16:55:35;18.00;99.90
19292;DHT22;9779;51.756;7.450;2022-10-16T16:58:01;18.00;99.90
19292;DHT22;9779;51.756;7.450;2022-10-16T17:00:28;18.00;99.90
19292;DHT22;9779;51.756;7.450;2022-10-16T17:02:53;17.90;99.90
19292;DHT22;9779;51.756;7.450;2022-10-16T17:05:19;17.90;99.90
19292;DHT22;9779;51.756;7.450;2022-10-16T17:07:44;17.80;99.90
19292;DHT22;9779;51.756;7.450;2022-10-16T17:10:10;17.80;99.90
19292;DHT22;9779;51.756;7.450;2022-10-16T17:12:35;17.70;99.90
19292;DHT22;9779;51.756;7.450;2022-10-16T17:15:01;17.60;99.90
19292;DHT22;9779;51.756;7.450;2022-10-16T17:17:27;17.60;99.90
19292;DHT22;9779;51.756;7.450;2022-10-16T17:19:52;17.50;99.90
19292;DHT22;9779;51.756;7.450;2022-10-16T17:22:19;17.50;99.90
19292;DHT22;9779;51.756;7.450;2022-10-16T17:24:48;17.50;99.90
19292;DHT22;9779;51.756;7.450;2022-10-16T17:27:15;17.40;99.90
19292;DHT22;9779;51.756;7.450;2022-10-16T17:29:40;17.40;99.90
19292;DHT22;9779;51.756;7.450;2022-10-16T17:32:06;17.30;99.90
19292;DHT22;9779;51.756;7.450;2022-10-16T17:34:31;17.30;99.90
19292;DHT22;9779;51.756;7.450;2022-10-16T17:36:57;17.20;99.90
19292;DHT22;9779;51.756;7.450;2022-10-16T17:39:23;17.20;99.90
19292;DHT22;9779;51.756;7.450;2022-10-16T17:41:48;17.20;99.90
19292;DHT22;9779;51.756;7.450;2022-10-16T17:44:15;17.20;99.90
19292;DHT22;9779;51.756;7.450;2022-10-16T17:46:45;17.10;99.90
19292;DHT22;9779;51.756;7.450;2022-10-16T17:49:11;17.10;99.90
19292;DHT22;9779;51.756;7.450;2022-10-16T17:51:37;17.00;99.90
19292;DHT22;9779;51.756;7.450;2022-10-16T17:54:02;17.00;99.90
19292;DHT22;9779;51.756;7.450;2022-10-16T17:56:29;17.00;99.90
19292;DHT22;9779;51.756;7.450;2022-10-16T17:58:56;17.00;99.90
19292;DHT22;9779;51.756;7.450;2022-10-16T18:01:26;17.00;99.90